createdAt,value
2022-12-31T00:00:30.219Z,100.00
2022-12-31T00:05:27.795Z,100.00
2022-12-31T00:10:18.626Z,100.00
2022-12-31T00:15:11.790Z,100.00
2022-12-31T00:20:02.305Z,100.00
2022-12-31T00:24:57.893Z,100.00
2022-12-31T00:29:47.585Z,100.00
2022-12-31T00:34:39.653Z,100.00
2022-12-31T00:39:29.360Z,100.00
2022-12-31T00:44:22.417Z,100.00
2022-12-31T00:49:18.345Z,100.00
2022-12-31T00:54:12.554Z,100.00
2022-12-31T00:59:03.421Z,100.00
2022-12-31T01:04:03.850Z,100.00
2022-12-31T01:08:56.067Z,100.00
2022-12-31T01:13:54.683Z,100.00
2022-12-31T01:18:50.868Z,100.00
2022-12-31T01:23:43.662Z,100.00
2022-12-31T01:28:35.201Z,100.00
2022-12-31T01:33:27.091Z,100.00
2022-12-31T01:38:21.751Z,100.00
2022-12-31T01:43:26.027Z,100.00
2022-12-31T01:48:18.568Z,100.00
2022-12-31T01:53:13.477Z,100.00
2022-12-31T01:58:09.286Z,100.00
2022-12-31T02:03:04.041Z,100.00
2022-12-31T02:07:56.092Z,100.00
2022-12-31T02:12:49.061Z,100.00
2022-12-31T02:17:45.627Z,100.00
2022-12-31T02:22:54.209Z,100.00
2022-12-31T02:27:58.135Z,100.00
2022-12-31T02:33:08.315Z,100.00
2022-12-31T02:38:06.232Z,100.00
2022-12-31T02:42:58.966Z,100.00
2022-12-31T02:47:58.614Z,100.00
2022-12-31T02:52:58.643Z,100.00
2022-12-31T02:58:04.615Z,100.00
2022-12-31T03:02:56.532Z,100.00
2022-12-31T03:07:47.627Z,100.00
2022-12-31T03:12:52.388Z,100.00
2022-12-31T03:17:48.993Z,100.00
2022-12-31T03:22:53.263Z,100.00
2022-12-31T03:27:52.210Z,100.00
2022-12-31T03:32:53.742Z,100.00
2022-12-31T03:37:44.714Z,100.00
2022-12-31T03:42:37.174Z,100.00
2022-12-31T03:47:30.227Z,100.00
2022-12-31T03:52:34.892Z,100.00
2022-12-31T03:57:28.783Z,100.00
2022-12-31T04:02:28.122Z,100.00
2022-12-31T04:07:23.583Z,100.00
2022-12-31T04:12:16.852Z,100.00
2022-12-31T04:17:10.148Z,100.00
2022-12-31T04:21:59.901Z,100.00
2022-12-31T04:26:53.324Z,100.00
2022-12-31T04:31:48.215Z,100.00
2022-12-31T04:36:41.595Z,100.00
2022-12-31T04:41:37.032Z,100.00
2022-12-31T04:46:42.921Z,100.00
2022-12-31T04:51:46.153Z,100.00
2022-12-31T04:56:41.009Z,100.00
2022-12-31T05:01:30.720Z,100.00
2022-12-31T05:06:22.343Z,100.00
2022-12-31T05:11:20.393Z,100.00
2022-12-31T05:16:15.790Z,100.00
2022-12-31T05:21:29.518Z,100.00
2022-12-31T05:26:23.806Z,100.00
2022-12-31T05:31:21.136Z,100.00
2022-12-31T05:36:13.164Z,100.00
2022-12-31T05:41:06.349Z,100.00
2022-12-31T05:46:05.178Z,100.00
2022-12-31T05:50:55.854Z,100.00
2022-12-31T05:55:46.336Z,100.00
2022-12-31T06:00:38.998Z,100.00
2022-12-31T06:05:38.205Z,100.00
2022-12-31T06:10:35.894Z,100.00
2022-12-31T06:15:30.562Z,100.00
2022-12-31T06:20:38.599Z,100.00
2022-12-31T06:25:39.364Z,100.00
2022-12-31T06:30:31.082Z,100.00
2022-12-31T06:35:31.183Z,100.00
2022-12-31T06:40:22.302Z,100.00
2022-12-31T06:45:19.053Z,100.00
2022-12-31T06:50:17.002Z,100.00
2022-12-31T06:55:17.058Z,100.00
2022-12-31T07:00:11.434Z,100.00
2022-12-31T07:05:16.241Z,100.00
2022-12-31T07:10:17.212Z,100.00
2022-12-31T07:15:09.751Z,100.00
2022-12-31T07:20:04.763Z,100.00
2022-12-31T07:25:02.100Z,100.00
2022-12-31T07:30:03.075Z,100.00
2022-12-31T07:35:01.215Z,100.00
2022-12-31T07:39:57.816Z,100.00
2022-12-31T07:45:09.198Z,100.00
2022-12-31T07:50:03.923Z,100.00
2022-12-31T07:54:59.156Z,100.00
2022-12-31T07:59:57.861Z,100.00
2022-12-31T08:05:00.558Z,100.00
2022-12-31T08:10:01.111Z,100.00
2022-12-31T08:14:56.748Z,100.00
2022-12-31T08:19:53.525Z,100.00
2022-12-31T08:24:58.088Z,100.00
2022-12-31T08:30:00.149Z,100.00
2022-12-31T08:40:20.002Z,100.00
2022-12-31T08:45:17.519Z,100.00
2022-12-31T08:50:11.666Z,100.00
2022-12-31T08:55:05.930Z,100.00
2022-12-31T09:00:06.034Z,100.00
2022-12-31T09:05:07.943Z,100.00
2022-12-31T09:10:12.816Z,100.00
2022-12-31T09:15:09.463Z,100.00
2022-12-31T09:20:04.461Z,100.00
2022-12-31T09:24:58.523Z,100.00
2022-12-31T09:29:54.031Z,100.00
2022-12-31T09:34:50.545Z,100.00
2022-12-31T09:39:48.230Z,100.00
2022-12-31T09:44:51.094Z,100.00
2022-12-31T09:50:03.959Z,100.00
2022-12-31T09:55:03.662Z,100.00
2022-12-31T09:59:58.588Z,100.00
2022-12-31T10:05:19.408Z,100.00
2022-12-31T10:10:18.268Z,100.00
2022-12-31T10:15:28.951Z,100.00
2022-12-31T10:20:43.358Z,100.00
2022-12-31T10:25:43.435Z,100.00
2022-12-31T10:30:48.194Z,100.00
2022-12-31T10:35:46.459Z,100.00
2022-12-31T10:40:51.866Z,100.00
2022-12-31T10:46:05.337Z,100.00
2022-12-31T10:51:10.595Z,100.00
2022-12-31T10:56:16.675Z,100.00
2022-12-31T11:01:11.352Z,100.00
2022-12-31T11:06:18.960Z,100.00
2022-12-31T11:11:25.688Z,100.00
2022-12-31T11:16:32.275Z,100.00
2022-12-31T11:21:41.821Z,100.00
2022-12-31T11:26:40.578Z,100.00
2022-12-31T11:31:44.335Z,100.00
2022-12-31T11:36:48.194Z,100.00
2022-12-31T11:41:46.725Z,100.00
2022-12-31T11:46:49.179Z,100.00
2022-12-31T11:51:50.613Z,100.00
2022-12-31T11:56:44.262Z,100.00
2022-12-31T12:01:37.325Z,100.00
2022-12-31T12:11:46.615Z,100.00
2022-12-31T12:16:37.504Z,100.00
2022-12-31T12:21:30.906Z,100.00
2022-12-31T12:26:36.856Z,100.00
2022-12-31T12:31:33.040Z,100.00
2022-12-31T12:36:30.102Z,100.00
2022-12-31T12:41:28.707Z,100.00
2022-12-31T12:46:24.207Z,100.00
2022-12-31T12:51:25.516Z,100.00
2022-12-31T12:56:24.574Z,100.00
2022-12-31T13:01:28.224Z,100.00
2022-12-31T13:06:45.849Z,100.00
2022-12-31T13:11:38.260Z,100.00
2022-12-31T13:16:40.098Z,100.00
2022-12-31T13:21:54.995Z,100.00
2022-12-31T13:26:48.912Z,100.00
2022-12-31T13:31:43.555Z,100.00
2022-12-31T13:36:46.206Z,100.00
2022-12-31T13:41:38.373Z,100.00
2022-12-31T13:46:38.669Z,100.00
2022-12-31T13:51:41.602Z,100.00
2022-12-31T13:56:42.060Z,100.00
2022-12-31T14:01:36.662Z,100.00
2022-12-31T14:06:32.507Z,100.00
2022-12-31T14:11:26.220Z,100.00
2022-12-31T14:16:28.802Z,100.00
2022-12-31T14:21:25.083Z,100.00
2022-12-31T14:26:23.979Z,100.00
2022-12-31T14:31:19.659Z,100.00
2022-12-31T14:36:31.653Z,100.00
2022-12-31T14:44:31.856Z,100.00
2022-12-31T14:49:37.020Z,100.00
2022-12-31T14:54:38.267Z,100.00
2022-12-31T14:59:38.805Z,100.00
2022-12-31T15:04:36.279Z,100.00
2022-12-31T15:09:47.101Z,100.00
2022-12-31T15:14:57.779Z,100.00
2022-12-31T15:20:17.480Z,100.00
2022-12-31T15:25:34.005Z,100.00
2022-12-31T15:30:47.022Z,100.00
2022-12-31T15:35:50.681Z,100.00
2022-12-31T15:40:48.651Z,100.00
2022-12-31T15:45:48.505Z,100.00
2022-12-31T15:50:45.505Z,100.00
2022-12-31T15:55:41.712Z,100.00
2022-12-31T16:00:51.191Z,100.00
2022-12-31T16:05:42.363Z,100.00
2022-12-31T16:10:35.886Z,100.00
2022-12-31T16:15:29.675Z,100.00
2022-12-31T16:20:30.586Z,100.00
2022-12-31T16:25:33.358Z,100.00
2022-12-31T16:30:30.731Z,100.00
2022-12-31T16:35:31.888Z,100.00
2022-12-31T16:40:27.518Z,100.00
2022-12-31T16:45:31.832Z,100.00
2022-12-31T16:50:27.267Z,100.00
2022-12-31T16:55:27.758Z,100.00
2022-12-31T17:00:21.308Z,100.00
2022-12-31T17:05:23.364Z,100.00
2022-12-31T17:10:28.035Z,100.00
2022-12-31T17:15:24.517Z,100.00
2022-12-31T17:20:25.795Z,100.00
2022-12-31T17:25:30.570Z,100.00
2022-12-31T17:30:40.709Z,100.00
2022-12-31T17:35:34.126Z,100.00
2022-12-31T17:40:52.426Z,100.00
2022-12-31T17:45:46.080Z,100.00
2022-12-31T17:50:36.342Z,100.00
2022-12-31T17:55:27.332Z,100.00
2022-12-31T18:00:24.768Z,100.00
2022-12-31T18:05:21.493Z,100.00
2022-12-31T18:10:13.538Z,100.00
2022-12-31T18:15:04.981Z,100.00
2022-12-31T18:20:06.830Z,100.00
2022-12-31T18:24:59.311Z,99.78
2022-12-31T18:30:00.595Z,98.50
2022-12-31T18:35:04.396Z,97.16
2022-12-31T18:40:00.770Z,96.54
2022-12-31T18:45:04.929Z,96.03
2022-12-31T18:49:56.061Z,95.70
2022-12-31T18:55:06.257Z,95.23
2022-12-31T19:00:13.382Z,94.85
2022-12-31T19:05:06.814Z,94.15
2022-12-31T19:10:20.899Z,94.44
2022-12-31T19:15:29.613Z,94.07
2022-12-31T19:20:24.228Z,94.52
2022-12-31T19:25:49.450Z,94.81
2022-12-31T19:30:46.019Z,96.77
2022-12-31T19:35:57.069Z,97.44
2022-12-31T19:40:53.888Z,97.64
2022-12-31T19:45:49.474Z,97.34
2022-12-31T19:50:44.373Z,97.85
2022-12-31T19:55:41.776Z,98.14
2022-12-31T20:00:37.993Z,98.12
2022-12-31T20:05:31.270Z,98.89
2022-12-31T20:10:28.909Z,98.91
2022-12-31T20:15:18.788Z,97.56
2022-12-31T20:20:12.558Z,96.19
2022-12-31T20:25:05.678Z,96.55
2022-12-31T20:29:57.118Z,95.67
2022-12-31T20:34:57.342Z,97.18
2022-12-31T20:39:59.938Z,97.42
2022-12-31T20:53:15.115Z,96.01
2022-12-31T20:58:12.382Z,95.50
2022-12-31T21:03:30.438Z,94.56
2022-12-31T21:08:34.463Z,94.09
2022-12-31T21:13:26.637Z,93.79
2022-12-31T21:18:48.052Z,93.79
2022-12-31T21:23:51.440Z,95.24
2022-12-31T21:28:50.686Z,95.23
2022-12-31T21:33:41.703Z,95.05
2022-12-31T21:38:33.068Z,93.96
2022-12-31T21:43:26.786Z,93.80
2022-12-31T21:48:25.281Z,93.47
2022-12-31T21:53:23.724Z,92.89
2022-12-31T21:58:26.019Z,93.02
2022-12-31T22:03:29.967Z,92.81
2022-12-31T22:08:26.339Z,92.57
2022-12-31T22:13:19.669Z,92.64
2022-12-31T22:18:15.213Z,92.86
2022-12-31T22:23:12.965Z,92.69
2022-12-31T22:28:36.888Z,93.34
2022-12-31T22:33:16.199Z,93.37
2022-12-31T22:38:13.912Z,93.15
2022-12-31T22:43:09.581Z,93.13
2022-12-31T22:48:03.321Z,92.99
2022-12-31T22:52:54.322Z,93.39
2022-12-31T22:57:49.274Z,93.08
2022-12-31T23:02:45.017Z,93.21
2022-12-31T23:07:35.194Z,93.45
2022-12-31T23:12:25.405Z,93.90
2022-12-31T23:17:34.486Z,94.16
2022-12-31T23:22:39.753Z,94.21
2022-12-31T23:27:33.845Z,94.34
2022-12-31T23:32:29.863Z,94.33
2022-12-31T23:37:20.839Z,94.33
2022-12-31T23:42:12.224Z,94.60
2022-12-31T23:47:02.358Z,94.67
2022-12-31T23:51:55.770Z,94.53
2022-12-31T23:56:47.594Z,94.76
